sensor_id;sensor_type;location;lat;lon;timestamp;temperature;humidity
9425;DHT22;17139;52.140;11.636;2022-09-27T00:01:17;12.10;51.90
9425;DHT22;17139;52.140;11.636;2022-09-27T00:03:44;12.10;52.00
9425;DHT22;17139;52.140;11.636;2022-09-27T00:06:13;12.00;52.00
9425;DHT22;17139;52.140;11.636;2022-09-27T00:08:41;12.10;52.20
9425;DHT22;17139;52.140;11.636;2022-09-27T00:11:11;12.00;52.10
9425;DHT22;17139;52.140;11.636;2022-09-27T00:13:42;12.00;52.20
9425;DHT22;17139;52.140;11.636;2022-09-27T00:16:10;12.00;52.20
9425;DHT22;17139;52.140;11.636;2022-09-27T00:18:38;12.00;52.20
9425;DHT22;17139;52.140;11.636;2022-09-27T00:21:07;12.00;52.30
9425;DHT22;17139;52.140;11.636;2022-09-27T00:23:34;12.00;52.30
9425;DHT22;17139;52.140;11.636;2022-09-27T00:26:02;11.90;52.30
9425;DHT22;17139;52.140;11.636;2022-09-27T00:28:29;11.90;52.30
9425;DHT22;17139;52.140;11.636;2022-09-27T00:30:57;12.50;52.80
9425;DHT22;17139;52.140;11.636;2022-09-27T00:33:24;12.40;51.90
9425;DHT22;17139;52.140;11.636;2022-09-27T00:35:53;13.00;52.20
9425;DHT22;17139;52.140;11.636;2022-09-27T00:38:20;12.80;51.60
9425;DHT22;17139;52.140;11.636;2022-09-27T00:40:47;12.50;51.90
9425;DHT22;17139;52.140;11.636;2022-09-27T00:43:17;12.40;52.00
9425;DHT22;17139;52.140;11.636;2022-09-27T00:45:48;12.30;52.30
9425;DHT22;17139;52.140;11.636;2022-09-27T00:48:19;12.20;52.40
9425;DHT22;17139;52.140;11.636;2022-09-27T00:50:50;12.10;52.40
9425;DHT22;17139;52.140;11.636;2022-09-27T00:53:23;12.00;52.50
9425;DHT22;17139;52.140;11.636;2022-09-27T00:55:56;12.00;52.60
9425;DHT22;17139;52.140;11.636;2022-09-27T00:58:27;12.50;53.00
9425;DHT22;17139;52.140;11.636;2022-09-27T01:00:59;12.30;52.30
9425;DHT22;17139;52.140;11.636;2022-09-27T01:03:33;12.40;52.80
9425;DHT22;17139;52.140;11.636;2022-09-27T01:06:02;12.20;52.30
9425;DHT22;17139;52.140;11.636;2022-09-27T01:08:32;12.00;52.50
9425;DHT22;17139;52.140;11.636;2022-09-27T01:11:34;11.90;52.70
9425;DHT22;17139;52.140;11.636;2022-09-27T01:14:17;11.80;52.60
9425;DHT22;17139;52.140;11.636;2022-09-27T01:16:56;11.70;53.00
9425;DHT22;17139;52.140;11.636;2022-09-27T01:22:26;11.60;52.90
9425;DHT22;17139;52.140;11.636;2022-09-27T01:25:07;11.60;53.00
9425;DHT22;17139;52.140;11.636;2022-09-27T01:27:58;12.20;53.50
9425;DHT22;17139;52.140;11.636;2022-09-27T01:30:41;12.00;52.70
9425;DHT22;17139;52.140;11.636;2022-09-27T01:33:24;11.80;52.90
9425;DHT22;17139;52.140;11.636;2022-09-27T01:36:15;11.70;53.00
9425;DHT22;17139;52.140;11.636;2022-09-27T01:38:53;11.70;53.00
9425;DHT22;17139;52.140;11.636;2022-09-27T01:41:26;11.60;53.00
9425;DHT22;17139;52.140;11.636;2022-09-27T01:43:58;11.60;52.90
9425;DHT22;17139;52.140;11.636;2022-09-27T01:46:32;11.50;52.90
9425;DHT22;17139;52.140;11.636;2022-09-27T01:49:05;11.50;52.90
9425;DHT22;17139;52.140;11.636;2022-09-27T01:51:37;11.50;53.00
9425;DHT22;17139;52.140;11.636;2022-09-27T01:54:07;11.80;53.80
9425;DHT22;17139;52.140;11.636;2022-09-27T01:56:40;11.80;53.10
9425;DHT22;17139;52.140;11.636;2022-09-27T01:59:10;12.00;53.50
9425;DHT22;17139;52.140;11.636;2022-09-27T02:01:44;11.90;53.00
9425;DHT22;17139;52.140;11.636;2022-09-27T02:04:16;11.80;53.20
9425;DHT22;17139;52.140;11.636;2022-09-27T02:06:47;11.70;53.00
9425;DHT22;17139;52.140;11.636;2022-09-27T02:09:19;11.60;53.00
9425;DHT22;17139;52.140;11.636;2022-09-27T02:11:50;11.60;53.10
9425;DHT22;17139;52.140;11.636;2022-09-27T02:14:24;11.50;53.00
9425;DHT22;17139;52.140;11.636;2022-09-27T02:16:58;11.50;53.10
9425;DHT22;17139;52.140;11.636;2022-09-27T02:19:33;11.50;53.20
9425;DHT22;17139;52.140;11.636;2022-09-27T02:22:10;11.60;53.60
9425;DHT22;17139;52.140;11.636;2022-09-27T02:24:48;11.60;53.20
9425;DHT22;17139;52.140;11.636;2022-09-27T02:27:21;11.90;53.80
9425;DHT22;17139;52.140;11.636;2022-09-27T02:29:53;11.80;53.10
9425;DHT22;17139;52.140;11.636;2022-09-27T02:32:24;11.70;53.10
9425;DHT22;17139;52.140;11.636;2022-09-27T02:34:52;11.50;53.10
9425;DHT22;17139;52.140;11.636;2022-09-27T02:37:20;11.50;53.30
9425;DHT22;17139;52.140;11.636;2022-09-27T02:39:47;11.50;53.40
9425;DHT22;17139;52.140;11.636;2022-09-27T02:42:15;11.40;53.40
9425;DHT22;17139;52.140;11.636;2022-09-27T02:44:42;11.40;53.30
9425;DHT22;17139;52.140;11.636;2022-09-27T02:47:22;11.40;53.30
9425;DHT22;17139;52.140;11.636;2022-09-27T02:50:03;11.40;53.40
9425;DHT22;17139;52.140;11.636;2022-09-27T02:52:41;12.30;53.80
9425;DHT22;17139;52.140;11.636;2022-09-27T02:55:13;12.00;53.00
9425;DHT22;17139;52.140;11.636;2022-09-27T02:57:54;12.60;53.80
9425;DHT22;17139;52.140;11.636;2022-09-27T03:00:27;12.30;53.10
9425;DHT22;17139;52.140;11.636;2022-09-27T03:03:01;11.90;53.20
9425;DHT22;17139;52.140;11.636;2022-09-27T03:05:35;11.70;53.50
9425;DHT22;17139;52.140;11.636;2022-09-27T03:08:03;11.60;53.60
9425;DHT22;17139;52.140;11.636;2022-09-27T03:10:31;11.50;53.70
9425;DHT22;17139;52.140;11.636;2022-09-27T03:12:58;11.50;53.80
9425;DHT22;17139;52.140;11.636;2022-09-27T03:15:25;11.40;53.70
9425;DHT22;17139;52.140;11.636;2022-09-27T03:17:52;11.40;53.80
9425;DHT22;17139;52.140;11.636;2022-09-27T03:20:19;11.40;53.90
9425;DHT22;17139;52.140;11.636;2022-09-27T03:22:47;11.50;53.80
9425;DHT22;17139;52.140;11.636;2022-09-27T03:25:15;11.40;53.80
9425;DHT22;17139;52.140;11.636;2022-09-27T03:27:42;12.20;54.50
9425;DHT22;17139;52.140;11.636;2022-09-27T03:30:12;12.00;53.30
9425;DHT22;17139;52.140;11.636;2022-09-27T03:32:42;11.80;53.60
9425;DHT22;17139;52.140;11.636;2022-09-27T03:35:09;11.60;53.80
9425;DHT22;17139;52.140;11.636;2022-09-27T03:37:37;11.50;53.90
9425;DHT22;17139;52.140;11.636;2022-09-27T03:40:08;11.40;53.90
9425;DHT22;17139;52.140;11.636;2022-09-27T03:42:35;11.40;54.00
9425;DHT22;17139;52.140;11.636;2022-09-27T03:45:02;11.30;53.90
9425;DHT22;17139;52.140;11.636;2022-09-27T03:47:29;11.30;54.00
9425;DHT22;17139;52.140;11.636;2022-09-27T03:49:57;11.30;54.00
9425;DHT22;17139;52.140;11.636;2022-09-27T03:52:24;11.30;54.00
9425;DHT22;17139;52.140;11.636;2022-09-27T03:54:51;11.30;54.00
9425;DHT22;17139;52.140;11.636;2022-09-27T03:57:20;11.30;54.00
9425;DHT22;17139;52.140;11.636;2022-09-27T03:59:47;11.30;54.00
9425;DHT22;17139;52.140;11.636;2022-09-27T04:02:14;11.20;53.90
9425;DHT22;17139;52.140;11.636;2022-09-27T04:04:41;11.20;53.90
9425;DHT22;17139;52.140;11.636;2022-09-27T04:07:09;11.20;53.90
9425;DHT22;17139;52.140;11.636;2022-09-27T04:09:35;11.20;54.00
9425;DHT22;17139;52.140;11.636;2022-09-27T04:12:03;11.20;53.90
9425;DHT22;17139;52.140;11.636;2022-09-27T04:14:32;11.20;53.90
9425;DHT22;17139;52.140;11.636;2022-09-27T04:17:00;11.20;53.90
9425;DHT22;17139;52.140;11.636;2022-09-27T04:19:27;11.40;54.50
9425;DHT22;17139;52.140;11.636;2022-09-27T04:21:55;11.30;53.80
9425;DHT22;17139;52.140;11.636;2022-09-27T04:24:22;11.30;53.80
9425;DHT22;17139;52.140;11.636;2022-09-27T04:26:50;11.20;53.80
9425;DHT22;17139;52.140;11.636;2022-09-27T04:29:17;11.20;53.90
9425;DHT22;17139;52.140;11.636;2022-09-27T04:31:45;11.20;54.00
9425;DHT22;17139;52.140;11.636;2022-09-27T04:34:12;11.20;54.00
9425;DHT22;17139;52.140;11.636;2022-09-27T04:36:40;11.50;54.80
9425;DHT22;17139;52.140;11.636;2022-09-27T04:39:08;11.40;53.80
9425;DHT22;17139;52.140;11.636;2022-09-27T04:41:35;11.30;53.90
9425;DHT22;17139;52.140;11.636;2022-09-27T04:44:03;11.30;54.00
9425;DHT22;17139;52.140;11.636;2022-09-27T04:46:31;11.40;54.50
9425;DHT22;17139;52.140;11.636;2022-09-27T04:49:01;11.30;54.00
9425;DHT22;17139;52.140;11.636;2022-09-27T04:51:28;11.20;54.00
9425;DHT22;17139;52.140;11.636;2022-09-27T04:53:56;11.20;54.10
9425;DHT22;17139;52.140;11.636;2022-09-27T04:56:23;11.10;54.10
9425;DHT22;17139;52.140;11.636;2022-09-27T04:58:50;11.10;54.20
9425;DHT22;17139;52.140;11.636;2022-09-27T05:01:18;11.10;54.20
9425;DHT22;17139;52.140;11.636;2022-09-27T05:03:45;11.80;55.00
9425;DHT22;17139;52.140;11.636;2022-09-27T05:06:13;12.10;54.60
9425;DHT22;17139;52.140;11.636;2022-09-27T05:08:40;11.90;53.80
9425;DHT22;17139;52.140;11.636;2022-09-27T05:11:07;12.10;54.70
9425;DHT22;17139;52.140;11.636;2022-09-27T05:13:34;11.90;53.90
9425;DHT22;17139;52.140;11.636;2022-09-27T05:16:02;11.70;54.10
9425;DHT22;17139;52.140;11.636;2022-09-27T05:18:29;11.50;54.30
9425;DHT22;17139;52.140;11.636;2022-09-27T05:20:57;11.40;54.40
9425;DHT22;17139;52.140;11.636;2022-09-27T05:23:25;11.30;54.50
9425;DHT22;17139;52.140;11.636;2022-09-27T05:25:52;11.20;54.50
9425;DHT22;17139;52.140;11.636;2022-09-27T05:28:21;11.10;54.50
9425;DHT22;17139;52.140;11.636;2022-09-27T05:30:48;11.80;55.30
9425;DHT22;17139;52.140;11.636;2022-09-27T05:33:15;11.60;54.30
9425;DHT22;17139;52.140;11.636;2022-09-27T05:35:42;11.50;54.40
9425;DHT22;17139;52.140;11.636;2022-09-27T05:38:12;11.30;54.40
9425;DHT22;17139;52.140;11.636;2022-09-27T05:40:41;11.30;54.60
9425;DHT22;17139;52.140;11.636;2022-09-27T05:43:09;11.20;54.60
9425;DHT22;17139;52.140;11.636;2022-09-27T05:45:36;11.20;54.60
9425;DHT22;17139;52.140;11.636;2022-09-27T05:48:03;11.30;54.60
9425;DHT22;17139;52.140;11.636;2022-09-27T05:50:30;11.20;54.60
9425;DHT22;17139;52.140;11.636;2022-09-27T05:52:57;11.20;54.60
9425;DHT22;17139;52.140;11.636;2022-09-27T05:55:24;11.20;54.60
9425;DHT22;17139;52.140;11.636;2022-09-27T05:57:57;11.80;55.50
9425;DHT22;17139;52.140;11.636;2022-09-27T06:00:24;11.80;54.60
9425;DHT22;17139;52.140;11.636;2022-09-27T06:02:53;12.40;55.00
9425;DHT22;17139;52.140;11.636;2022-09-27T06:05:21;12.20;54.10
9425;DHT22;17139;52.140;11.636;2022-09-27T06:07:48;12.00;54.30
9425;DHT22;17139;52.140;11.636;2022-09-27T06:10:15;11.90;54.40
9425;DHT22;17139;52.140;11.636;2022-09-27T06:12:42;11.80;54.40
9425;DHT22;17139;52.140;11.636;2022-09-27T06:15:11;11.70;54.50
9425;DHT22;17139;52.140;11.636;2022-09-27T06:17:39;11.70;54.60
9425;DHT22;17139;52.140;11.636;2022-09-27T06:20:08;11.60;54.60
9425;DHT22;17139;52.140;11.636;2022-09-27T06:22:35;11.50;54.60
9425;DHT22;17139;52.140;11.636;2022-09-27T06:25:02;12.20;55.20
9425;DHT22;17139;52.140;11.636;2022-09-27T06:27:29;12.00;54.40
9425;DHT22;17139;52.140;11.636;2022-09-27T06:29:56;11.80;54.50
9425;DHT22;17139;52.140;11.636;2022-09-27T06:32:25;11.70;54.60
9425;DHT22;17139;52.140;11.636;2022-09-27T06:34:52;11.70;54.80
9425;DHT22;17139;52.140;11.636;2022-09-27T06:37:19;11.70;54.80
9425;DHT22;17139;52.140;11.636;2022-09-27T06:39:45;11.60;54.70
9425;DHT22;17139;52.140;11.636;2022-09-27T06:42:13;11.70;54.70
9425;DHT22;17139;52.140;11.636;2022-09-27T06:44:43;11.70;54.60
9425;DHT22;17139;52.140;11.636;2022-09-27T06:47:12;11.70;54.60
9425;DHT22;17139;52.140;11.636;2022-09-27T06:49:40;11.70;54.70
9425;DHT22;17139;52.140;11.636;2022-09-27T06:52:07;12.50;54.90
9425;DHT22;17139;52.140;11.636;2022-09-27T06:54:35;12.40;54.20
9425;DHT22;17139;52.140;11.636;2022-09-27T06:57:02;12.90;55.10
9425;DHT22;17139;52.140;11.636;2022-09-27T06:59:29;12.60;53.80
9425;DHT22;17139;52.140;11.636;2022-09-27T07:02:13;12.40;54.10
9425;DHT22;17139;52.140;11.636;2022-09-27T07:04:41;12.30;54.40
9425;DHT22;17139;52.140;11.636;2022-09-27T07:07:08;12.20;54.50
9425;DHT22;17139;52.140;11.636;2022-09-27T07:09:36;12.20;54.60
9425;DHT22;17139;52.140;11.636;2022-09-27T07:12:04;12.20;54.60
9425;DHT22;17139;52.140;11.636;2022-09-27T07:14:31;12.30;54.70
9425;DHT22;17139;52.140;11.636;2022-09-27T07:16:59;12.30;54.50
9425;DHT22;17139;52.140;11.636;2022-09-27T07:19:26;12.70;54.80
9425;DHT22;17139;52.140;11.636;2022-09-27T07:21:55;12.60;54.10
9425;DHT22;17139;52.140;11.636;2022-09-27T07:24:22;12.80;54.70
9425;DHT22;17139;52.140;11.636;2022-09-27T07:26:49;12.80;54.10
9425;DHT22;17139;52.140;11.636;2022-09-27T07:29:16;12.70;54.30
9425;DHT22;17139;52.140;11.636;2022-09-27T07:31:43;12.70;54.40
9425;DHT22;17139;52.140;11.636;2022-09-27T07:34:10;12.70;54.30
9425;DHT22;17139;52.140;11.636;2022-09-27T07:36:37;12.80;54.40
9425;DHT22;17139;52.140;11.636;2022-09-27T07:39:06;12.80;54.40
9425;DHT22;17139;52.140;11.636;2022-09-27T07:41:33;12.80;54.10
9425;DHT22;17139;52.140;11.636;2022-09-27T07:44:00;12.80;54.00
9425;DHT22;17139;52.140;11.636;2022-09-27T07:46:29;12.80;54.10
9425;DHT22;17139;52.140;11.636;2022-09-27T07:48:56;13.00;54.10
9425;DHT22;17139;52.140;11.636;2022-09-27T07:51:23;12.80;53.90
9425;DHT22;17139;52.140;11.636;2022-09-27T07:53:50;12.80;54.10
9425;DHT22;17139;52.140;11.636;2022-09-27T07:56:18;12.60;53.80
9425;DHT22;17139;52.140;11.636;2022-09-27T07:58:46;12.40;54.20
9425;DHT22;17139;52.140;11.636;2022-09-27T08:01:13;12.30;54.40
9425;DHT22;17139;52.140;11.636;2022-09-27T08:03:40;12.10;54.40
9425;DHT22;17139;52.140;11.636;2022-09-27T08:06:07;11.90;54.50
9425;DHT22;17139;52.140;11.636;2022-09-27T08:08:34;11.90;54.60
9425;DHT22;17139;52.140;11.636;2022-09-27T08:11:09;11.80;54.60
9425;DHT22;17139;52.140;11.636;2022-09-27T08:13:38;11.80;54.70
9425;DHT22;17139;52.140;11.636;2022-09-27T08:16:05;11.80;54.90
9425;DHT22;17139;52.140;11.636;2022-09-27T08:18:32;12.10;55.10
9425;DHT22;17139;52.140;11.636;2022-09-27T08:21:00;12.10;54.50
9425;DHT22;17139;52.140;11.636;2022-09-27T08:23:27;12.70;54.50
9425;DHT22;17139;52.140;11.636;2022-09-27T08:25:54;12.50;53.90
9425;DHT22;17139;52.140;11.636;2022-09-27T08:28:22;12.20;54.20
9425;DHT22;17139;52.140;11.636;2022-09-27T08:30:50;12.10;54.50
9425;DHT22;17139;52.140;11.636;2022-09-27T08:33:17;12.00;54.60
9425;DHT22;17139;52.140;11.636;2022-09-27T08:35:44;12.00;54.70
9425;DHT22;17139;52.140;11.636;2022-09-27T08:38:11;12.00;54.60
9425;DHT22;17139;52.140;11.636;2022-09-27T08:40:52;12.00;54.70
9425;DHT22;17139;52.140;11.636;2022-09-27T08:43:29;12.00;54.70
9425;DHT22;17139;52.140;11.636;2022-09-27T08:46:10;12.40;54.90
9425;DHT22;17139;52.140;11.636;2022-09-27T08:48:40;12.40;54.40
9425;DHT22;17139;52.140;11.636;2022-09-27T08:51:11;12.80;54.40
9425;DHT22;17139;52.140;11.636;2022-09-27T08:53:44;12.60;53.90
9425;DHT22;17139;52.140;11.636;2022-09-27T08:56:16;12.30;54.20
9425;DHT22;17139;52.140;11.636;2022-09-27T08:58:49;12.10;54.50
9425;DHT22;17139;52.140;11.636;2022-09-27T09:01:18;11.90;54.70
9425;DHT22;17139;52.140;11.636;2022-09-27T09:03:49;11.90;54.90
9425;DHT22;17139;52.140;11.636;2022-09-27T09:06:22;11.90;54.90
9425;DHT22;17139;52.140;11.636;2022-09-27T09:09:02;11.90;55.00
9425;DHT22;17139;52.140;11.636;2022-09-27T09:11:40;11.90;54.90
9425;DHT22;17139;52.140;11.636;2022-09-27T09:15:00;11.90;55.00
9425;DHT22;17139;52.140;11.636;2022-09-27T09:17:41;11.90;54.80
9425;DHT22;17139;52.140;11.636;2022-09-27T09:20:18;12.30;55.20
9425;DHT22;17139;52.140;11.636;2022-09-27T09:23:01;12.30;54.60
9425;DHT22;17139;52.140;11.636;2022-09-27T09:25:36;12.30;54.70
9425;DHT22;17139;52.140;11.636;2022-09-27T09:28:22;12.20;54.70
9425;DHT22;17139;52.140;11.636;2022-09-27T09:31:00;12.20;54.70
9425;DHT22;17139;52.140;11.636;2022-09-27T09:33:31;12.30;54.80
9425;DHT22;17139;52.140;11.636;2022-09-27T09:36:02;12.40;54.80
9425;DHT22;17139;52.140;11.636;2022-09-27T09:38:36;12.40;54.70
9425;DHT22;17139;52.140;11.636;2022-09-27T09:41:09;12.40;54.70
9425;DHT22;17139;52.140;11.636;2022-09-27T09:43:41;12.50;54.70
9425;DHT22;17139;52.140;11.636;2022-09-27T09:46:13;13.20;55.00
9425;DHT22;17139;52.140;11.636;2022-09-27T09:48:46;12.90;54.10
9425;DHT22;17139;52.140;11.636;2022-09-27T09:51:18;12.70;54.40
9425;DHT22;17139;52.140;11.636;2022-09-27T09:53:51;12.60;54.80
9425;DHT22;17139;52.140;11.636;2022-09-27T09:56:23;12.50;54.80
9425;DHT22;17139;52.140;11.636;2022-09-27T09:58:55;12.40;54.80
9425;DHT22;17139;52.140;11.636;2022-09-27T10:01:26;12.30;54.90
9425;DHT22;17139;52.140;11.636;2022-09-27T10:03:55;12.30;55.00
9425;DHT22;17139;52.140;11.636;2022-09-27T10:06:23;12.50;55.10
9425;DHT22;17139;52.140;11.636;2022-09-27T10:08:51;12.50;54.90
9425;DHT22;17139;52.140;11.636;2022-09-27T10:11:24;12.50;54.80
9425;DHT22;17139;52.140;11.636;2022-09-27T10:13:52;12.50;54.80
9425;DHT22;17139;52.140;11.636;2022-09-27T10:16:21;12.40;54.70
9425;DHT22;17139;52.140;11.636;2022-09-27T10:18:50;12.70;55.00
9425;DHT22;17139;52.140;11.636;2022-09-27T10:21:23;12.70;54.60
9425;DHT22;17139;52.140;11.636;2022-09-27T10:24:02;12.70;54.70
9425;DHT22;17139;52.140;11.636;2022-09-27T10:26:30;12.70;54.80
9425;DHT22;17139;52.140;11.636;2022-09-27T10:29:14;12.70;54.70
9425;DHT22;17139;52.140;11.636;2022-09-27T10:31:43;12.60;54.60
9425;DHT22;17139;52.140;11.636;2022-09-27T10:34:17;12.50;54.70
9425;DHT22;17139;52.140;11.636;2022-09-27T10:37:01;12.40;54.90
9425;DHT22;17139;52.140;11.636;2022-09-27T10:39:30;12.30;54.90
9425;DHT22;17139;52.140;11.636;2022-09-27T10:41:58;12.10;55.00
9425;DHT22;17139;52.140;11.636;2022-09-27T10:44:26;12.30;55.30
9425;DHT22;17139;52.140;11.636;2022-09-27T10:46:55;12.10;54.80
9425;DHT22;17139;52.140;11.636;2022-09-27T10:49:26;12.30;55.30
9425;DHT22;17139;52.140;11.636;2022-09-27T10:51:57;12.20;55.00
9425;DHT22;17139;52.140;11.636;2022-09-27T10:54:26;12.00;55.00
9425;DHT22;17139;52.140;11.636;2022-09-27T10:57:00;11.90;55.00
9425;DHT22;17139;52.140;11.636;2022-09-27T10:59:30;11.90;55.10
9425;DHT22;17139;52.140;11.636;2022-09-27T11:01:59;11.90;55.10
9425;DHT22;17139;52.140;11.636;2022-09-27T11:04:31;12.00;55.10
9425;DHT22;17139;52.140;11.636;2022-09-27T11:07:17;12.20;55.10
9425;DHT22;17139;52.140;11.636;2022-09-27T11:09:51;12.30;55.00
9425;DHT22;17139;52.140;11.636;2022-09-27T11:12:19;12.40;55.00
9425;DHT22;17139;52.140;11.636;2022-09-27T11:14:56;13.20;54.90
9425;DHT22;17139;52.140;11.636;2022-09-27T11:17:29;13.10;54.20
9425;DHT22;17139;52.140;11.636;2022-09-27T11:20:11;13.70;54.10
9425;DHT22;17139;52.140;11.636;2022-09-27T11:23:12;13.40;53.80
9425;DHT22;17139;52.140;11.636;2022-09-27T11:25:51;13.00;54.10
9425;DHT22;17139;52.140;11.636;2022-09-27T11:28:33;12.60;54.70
9425;DHT22;17139;52.140;11.636;2022-09-27T11:31:07;12.40;55.10
9425;DHT22;17139;52.140;11.636;2022-09-27T11:33:57;12.30;55.30
9425;DHT22;17139;52.140;11.636;2022-09-27T11:36:33;12.30;55.20
9425;DHT22;17139;52.140;11.636;2022-09-27T11:39:16;12.40;55.30
9425;DHT22;17139;52.140;11.636;2022-09-27T11:41:57;12.40;55.20
9425;DHT22;17139;52.140;11.636;2022-09-27T11:44:40;13.00;55.90
9425;DHT22;17139;52.140;11.636;2022-09-27T11:47:16;12.90;54.70
9425;DHT22;17139;52.140;11.636;2022-09-27T11:53:03;12.80;54.80
9425;DHT22;17139;52.140;11.636;2022-09-27T11:55:41;12.70;55.00
9425;DHT22;17139;52.140;11.636;2022-09-27T11:58:18;12.60;55.00
9425;DHT22;17139;52.140;11.636;2022-09-27T12:01:00;12.50;55.00
9425;DHT22;17139;52.140;11.636;2022-09-27T12:04:00;12.50;55.00
9425;DHT22;17139;52.140;11.636;2022-09-27T12:06:39;12.50;55.10
9425;DHT22;17139;52.140;11.636;2022-09-27T12:09:09;12.50;55.10
9425;DHT22;17139;52.140;11.636;2022-09-27T12:11:42;12.60;55.00
9425;DHT22;17139;52.140;11.636;2022-09-27T12:14:16;13.00;54.50
9425;DHT22;17139;52.140;11.636;2022-09-27T12:16:45;13.00;54.30
9425;DHT22;17139;52.140;11.636;2022-09-27T12:19:17;13.60;54.20
9425;DHT22;17139;52.140;11.636;2022-09-27T12:21:45;13.60;54.10
9425;DHT22;17139;52.140;11.636;2022-09-27T12:24:18;13.60;54.20
9425;DHT22;17139;52.140;11.636;2022-09-27T12:26:49;13.60;54.10
9425;DHT22;17139;52.140;11.636;2022-09-27T12:29:21;13.50;54.10
9425;DHT22;17139;52.140;11.636;2022-09-27T12:31:57;13.40;54.30
9425;DHT22;17139;52.140;11.636;2022-09-27T12:34:33;13.50;54.60
9425;DHT22;17139;52.140;11.636;2022-09-27T12:37:03;13.70;54.50
9425;DHT22;17139;52.140;11.636;2022-09-27T12:39:42;13.60;54.20
9425;DHT22;17139;52.140;11.636;2022-09-27T12:42:16;13.60;54.30
9425;DHT22;17139;52.140;11.636;2022-09-27T12:44:46;14.20;52.80
9425;DHT22;17139;52.140;11.636;2022-09-27T12:47:28;14.00;53.20
9425;DHT22;17139;52.140;11.636;2022-09-27T12:50:03;14.10;53.00
9425;DHT22;17139;52.140;11.636;2022-09-27T12:52:38;13.80;53.30
9425;DHT22;17139;52.140;11.636;2022-09-27T12:55:21;13.70;53.80
9425;DHT22;17139;52.140;11.636;2022-09-27T12:58:16;13.60;53.90
9425;DHT22;17139;52.140;11.636;2022-09-27T13:00:53;13.60;54.80
9425;DHT22;17139;52.140;11.636;2022-09-27T13:03:39;13.60;54.30
9425;DHT22;17139;52.140;11.636;2022-09-27T13:06:31;13.60;54.20
9425;DHT22;17139;52.140;11.636;2022-09-27T13:12:01;13.50;54.60
9425;DHT22;17139;52.140;11.636;2022-09-27T13:14:34;13.40;54.50
9425;DHT22;17139;52.140;11.636;2022-09-27T13:17:04;13.50;54.60
9425;DHT22;17139;52.140;11.636;2022-09-27T13:19:42;13.80;53.80
9425;DHT22;17139;52.140;11.636;2022-09-27T13:22:36;13.80;53.70
9425;DHT22;17139;52.140;11.636;2022-09-27T13:25:47;13.80;53.90
9425;DHT22;17139;52.140;11.636;2022-09-27T13:28:33;13.70;54.00
9425;DHT22;17139;52.140;11.636;2022-09-27T13:31:05;13.60;54.30
9425;DHT22;17139;52.140;11.636;2022-09-27T13:33:44;13.50;54.50
9425;DHT22;17139;52.140;11.636;2022-09-27T13:36:24;13.50;54.50
9425;DHT22;17139;52.140;11.636;2022-09-27T13:39:12;13.40;54.50
9425;DHT22;17139;52.140;11.636;2022-09-27T13:41:56;13.30;54.40
9425;DHT22;17139;52.140;11.636;2022-09-27T13:47:29;13.40;54.10
9425;DHT22;17139;52.140;11.636;2022-09-27T13:50:12;13.30;54.20
9425;DHT22;17139;52.140;11.636;2022-09-27T13:52:45;13.20;54.40
9425;DHT22;17139;52.140;11.636;2022-09-27T13:55:45;13.20;54.30
9425;DHT22;17139;52.140;11.636;2022-09-27T14:01:24;13.00;54.50
9425;DHT22;17139;52.140;11.636;2022-09-27T14:03:56;13.00;54.60
9425;DHT22;17139;52.140;11.636;2022-09-27T14:06:28;13.00;54.40
9425;DHT22;17139;52.140;11.636;2022-09-27T14:08:57;13.20;54.30
9425;DHT22;17139;52.140;11.636;2022-09-27T14:11:28;13.30;54.40
9425;DHT22;17139;52.140;11.636;2022-09-27T14:13:57;13.30;54.20
9425;DHT22;17139;52.140;11.636;2022-09-27T14:16:29;13.90;53.20
9425;DHT22;17139;52.140;11.636;2022-09-27T14:19:00;13.90;53.20
9425;DHT22;17139;52.140;11.636;2022-09-27T14:21:30;14.10;52.40
9425;DHT22;17139;52.140;11.636;2022-09-27T14:24:18;13.80;53.00
9425;DHT22;17139;52.140;11.636;2022-09-27T14:26:45;13.50;53.50
9425;DHT22;17139;52.140;11.636;2022-09-27T14:29:15;13.30;53.90
9425;DHT22;17139;52.140;11.636;2022-09-27T14:31:43;13.20;54.10
9425;DHT22;17139;52.140;11.636;2022-09-27T14:34:13;13.20;54.30
9425;DHT22;17139;52.140;11.636;2022-09-27T14:36:42;13.20;54.30
9425;DHT22;17139;52.140;11.636;2022-09-27T14:39:29;13.10;54.20
9425;DHT22;17139;52.140;11.636;2022-09-27T14:41:57;13.10;54.20
9425;DHT22;17139;52.140;11.636;2022-09-27T14:44:25;13.80;53.20
9425;DHT22;17139;52.140;11.636;2022-09-27T14:47:09;13.60;52.50
9425;DHT22;17139;52.140;11.636;2022-09-27T14:49:46;14.00;51.40
9425;DHT22;17139;52.140;11.636;2022-09-27T14:52:16;13.60;52.50
9425;DHT22;17139;52.140;11.636;2022-09-27T14:54:55;13.30;53.20
9425;DHT22;17139;52.140;11.636;2022-09-27T14:57:22;13.10;53.80
9425;DHT22;17139;52.140;11.636;2022-09-27T14:59:49;12.90;54.10
9425;DHT22;17139;52.140;11.636;2022-09-27T15:02:19;12.80;54.10
9425;DHT22;17139;52.140;11.636;2022-09-27T15:04:49;13.20;53.50
9425;DHT22;17139;52.140;11.636;2022-09-27T15:07:17;13.00;53.50
9425;DHT22;17139;52.140;11.636;2022-09-27T15:09:45;13.40;52.60
9425;DHT22;17139;52.140;11.636;2022-09-27T15:12:15;13.20;52.90
9425;DHT22;17139;52.140;11.636;2022-09-27T15:14:47;12.90;53.30
9425;DHT22;17139;52.140;11.636;2022-09-27T15:17:17;12.80;53.80
9425;DHT22;17139;52.140;11.636;2022-09-27T15:20:03;12.70;53.90
9425;DHT22;17139;52.140;11.636;2022-09-27T15:22:44;12.60;53.80
9425;DHT22;17139;52.140;11.636;2022-09-27T15:25:25;12.40;54.10
9425;DHT22;17139;52.140;11.636;2022-09-27T15:27:58;12.30;54.20
9425;DHT22;17139;52.140;11.636;2022-09-27T15:30:28;12.10;54.40
9425;DHT22;17139;52.140;11.636;2022-09-27T15:32:59;12.10;54.40
9425;DHT22;17139;52.140;11.636;2022-09-27T15:35:29;12.20;54.10
9425;DHT22;17139;52.140;11.636;2022-09-27T15:38:28;12.20;54.00
9425;DHT22;17139;52.140;11.636;2022-09-27T15:41:07;12.10;54.10
9425;DHT22;17139;52.140;11.636;2022-09-27T15:43:37;12.00;54.30
9425;DHT22;17139;52.140;11.636;2022-09-27T15:46:34;12.00;54.40
9425;DHT22;17139;52.140;11.636;2022-09-27T15:49:22;11.90;54.20
9425;DHT22;17139;52.140;11.636;2022-09-27T15:51:54;11.90;54.30
9425;DHT22;17139;52.140;11.636;2022-09-27T15:54:23;11.90;54.40
9425;DHT22;17139;52.140;11.636;2022-09-27T15:56:53;11.90;54.30
9425;DHT22;17139;52.140;11.636;2022-09-27T15:59:24;11.80;54.20
9425;DHT22;17139;52.140;11.636;2022-09-27T16:01:54;11.80;54.20
9425;DHT22;17139;52.140;11.636;2022-09-27T16:04:22;11.70;54.20
9425;DHT22;17139;52.140;11.636;2022-09-27T16:06:49;11.70;54.30
9425;DHT22;17139;52.140;11.636;2022-09-27T16:09:19;11.70;54.30
9425;DHT22;17139;52.140;11.636;2022-09-27T16:11:47;11.70;54.30
9425;DHT22;17139;52.140;11.636;2022-09-27T16:14:16;12.00;53.40
9425;DHT22;17139;52.140;11.636;2022-09-27T16:16:45;11.90;53.50